sensor_id;sensor_type;location;lat;lon;timestamp;pressure;altitude;pressure_sealevel;temperature;humidity
45941;BME280;31858;46.008;8.978;2023-02-18T00:00:04;95545.72;;;6.94;100.00
45941;BME280;31858;46.008;8.978;2023-02-18T00:10:09;95531.13;;;6.88;100.00
45941;BME280;31858;46.008;8.978;2023-02-18T00:20:13;95524.31;;;6.99;100.00
45941;BME280;31858;46.008;8.978;2023-02-18T00:30:15;95511.34;;;6.85;100.00
45941;BME280;31858;46.008;8.978;2023-02-18T00:40:18;95500.41;;;6.66;100.00
45941;BME280;31858;46.008;8.978;2023-02-18T00:50:20;95498.34;;;6.72;100.00
45941;BME280;31858;46.008;8.978;2023-02-18T01:00:23;95490.84;;;6.74;100.00
45941;BME280;31858;46.008;8.978;2023-02-18T01:10:25;95489.09;;;6.57;100.00
45941;BME280;31858;46.008;8.978;2023-02-18T01:20:28;95479.41;;;6.61;100.00
45941;BME280;31858;46.008;8.978;2023-02-18T01:30:30;95482.38;;;6.60;100.00
45941;BME280;31858;46.008;8.978;2023-02-18T01:40:33;95473.63;;;6.47;100.00
45941;BME280;31858;46.008;8.978;2023-02-18T01:50:37;95464.56;;;6.27;100.00
45941;BME280;31858;46.008;8.978;2023-02-18T02:00:41;95465.50;;;6.22;100.00
45941;BME280;31858;46.008;8.978;2023-02-18T02:10:59;95453.44;;;6.13;100.00
45941;BME280;31858;46.008;8.978;2023-02-18T02:21:34;95454.75;;;6.28;100.00
45941;BME280;31858;46.008;8.978;2023-02-18T02:32:00;95451.09;;;6.11;100.00
45941;BME280;31858;46.008;8.978;2023-02-18T02:42:12;95445.72;;;6.29;100.00
45941;BME280;31858;46.008;8.978;2023-02-18T02:52:18;95426.16;;;6.21;100.00
45941;BME280;31858;46.008;8.978;2023-02-18T03:02:30;95432.53;;;6.20;100.00
45941;BME280;31858;46.008;8.978;2023-02-18T03:12:43;95428.41;;;6.31;100.00
45941;BME280;31858;46.008;8.978;2023-02-18T03:22:50;95425.28;;;6.08;100.00
45941;BME280;31858;46.008;8.978;2023-02-18T03:32:56;95434.44;;;6.11;100.00
45941;BME280;31858;46.008;8.978;2023-02-18T03:43:00;95428.28;;;6.28;100.00
45941;BME280;31858;46.008;8.978;2023-02-18T03:53:02;95422.59;;;6.17;100.00
45941;BME280;31858;46.008;8.978;2023-02-18T04:03:04;95431.03;;;6.10;100.00
45941;BME280;31858;46.008;8.978;2023-02-18T04:13:06;95430.66;;;5.91;100.00
45941;BME280;31858;46.008;8.978;2023-02-18T04:23:09;95428.34;;;5.89;100.00
45941;BME280;31858;46.008;8.978;2023-02-18T04:33:11;95427.28;;;5.73;100.00
45941;BME280;31858;46.008;8.978;2023-02-18T04:43:14;95438.47;;;5.79;100.00
45941;BME280;31858;46.008;8.978;2023-02-18T04:53:15;95438.28;;;5.93;100.00
45941;BME280;31858;46.008;8.978;2023-02-18T05:03:18;95435.91;;;6.00;100.00
45941;BME280;31858;46.008;8.978;2023-02-18T05:13:20;95443.06;;;5.99;100.00
45941;BME280;31858;46.008;8.978;2023-02-18T05:23:24;95430.91;;;6.07;100.00
45941;BME280;31858;46.008;8.978;2023-02-18T05:33:26;95434.53;;;5.94;100.00
45941;BME280;31858;46.008;8.978;2023-02-18T05:43:29;95431.06;;;6.02;100.00
45941;BME280;31858;46.008;8.978;2023-02-18T05:53:50;95431.25;;;5.97;100.00
45941;BME280;31858;46.008;8.978;2023-02-18T06:03:53;95433.69;;;6.10;100.00
45941;BME280;31858;46.008;8.978;2023-02-18T06:13:55;95455.75;;;5.76;100.00
45941;BME280;31858;46.008;8.978;2023-02-18T06:23:58;95458.75;;;5.66;100.00
45941;BME280;31858;46.008;8.978;2023-02-18T06:33:59;95462.47;;;5.65;100.00
45941;BME280;31858;46.008;8.978;2023-02-18T06:44:03;95467.03;;;5.56;100.00
45941;BME280;31858;46.008;8.978;2023-02-18T06:54:04;95465.31;;;5.60;100.00
45941;BME280;31858;46.008;8.978;2023-02-18T07:04:07;95465.31;;;5.60;100.00
45941;BME280;31858;46.008;8.978;2023-02-18T07:14:09;95469.22;;;6.01;100.00
45941;BME280;31858;46.008;8.978;2023-02-18T07:24:12;95467.84;;;5.95;100.00
45941;BME280;31858;46.008;8.978;2023-02-18T07:34:13;95471.44;;;5.90;100.00
45941;BME280;31858;46.008;8.978;2023-02-18T07:44:16;95478.09;;;5.87;100.00
45941;BME280;31858;46.008;8.978;2023-02-18T07:54:18;95476.56;;;5.95;100.00
45941;BME280;31858;46.008;8.978;2023-02-18T08:04:21;95490.66;;;6.08;100.00
45941;BME280;31858;46.008;8.978;2023-02-18T08:14:22;95494.84;;;6.09;100.00
45941;BME280;31858;46.008;8.978;2023-02-18T08:24:25;95505.00;;;6.36;100.00
45941;BME280;31858;46.008;8.978;2023-02-18T08:34:27;95495.94;;;6.58;100.00
45941;BME280;31858;46.008;8.978;2023-02-18T08:44:30;95491.06;;;6.48;100.00
45941;BME280;31858;46.008;8.978;2023-02-18T08:54:31;95498.59;;;6.58;100.00
45941;BME280;31858;46.008;8.978;2023-02-18T09:04:34;95491.81;;;6.90;100.00
45941;BME280;31858;46.008;8.978;2023-02-18T09:14:36;95481.50;;;6.76;100.00
45941;BME280;31858;46.008;8.978;2023-02-18T09:24:40;95484.41;;;6.83;100.00
45941;BME280;31858;46.008;8.978;2023-02-18T09:34:43;95487.56;;;6.98;100.00
45941;BME280;31858;46.008;8.978;2023-02-18T09:44:48;95484.88;;;7.18;100.00
45941;BME280;31858;46.008;8.978;2023-02-18T09:54:52;95474.44;;;7.34;100.00
45941;BME280;31858;46.008;8.978;2023-02-18T10:04:56;95475.38;;;7.50;100.00
45941;BME280;31858;46.008;8.978;2023-02-18T10:14:59;95475.63;;;7.94;100.00
45941;BME280;31858;46.008;8.978;2023-02-18T10:25:06;95468.44;;;8.19;100.00
45941;BME280;31858;46.008;8.978;2023-02-18T10:35:16;95468.47;;;8.43;100.00
45941;BME280;31858;46.008;8.978;2023-02-18T10:45:27;95467.97;;;8.66;100.00
45941;BME280;31858;46.008;8.978;2023-02-18T10:55:35;95464.59;;;8.93;100.00
45941;BME280;31858;46.008;8.978;2023-02-18T11:05:39;95453.94;;;9.21;100.00
45941;BME280;31858;46.008;8.978;2023-02-18T11:15:54;95441.94;;;9.27;100.00
45941;BME280;31858;46.008;8.978;2023-02-18T11:26:00;95435.97;;;9.62;100.00
45941;BME280;31858;46.008;8.978;2023-02-18T11:36:04;95415.88;;;9.96;100.00
45941;BME280;31858;46.008;8.978;2023-02-18T11:46:17;95393.94;;;10.18;100.00
45941;BME280;31858;46.008;8.978;2023-02-18T11:56:19;95387.84;;;10.33;100.00
45941;BME280;31858;46.008;8.978;2023-02-18T12:06:25;95368.63;;;10.63;100.00
45941;BME280;31858;46.008;8.978;2023-02-18T12:16:34;95362.16;;;10.83;100.00
45941;BME280;31858;46.008;8.978;2023-02-18T12:26:48;95348.75;;;10.99;100.00
45941;BME280;31858;46.008;8.978;2023-02-18T12:37:02;95328.91;;;10.96;100.00
45941;BME280;31858;46.008;8.978;2023-02-18T12:47:29;95316.94;;;11.09;100.00
45941;BME280;31858;46.008;8.978;2023-02-18T12:57:38;95294.47;;;11.33;100.00
45941;BME280;31858;46.008;8.978;2023-02-18T13:07:58;95288.31;;;11.29;100.00
45941;BME280;31858;46.008;8.978;2023-02-18T13:18:09;95276.25;;;11.39;100.00
45941;BME280;31858;46.008;8.978;2023-02-18T13:28:18;95262.84;;;11.58;100.00
45941;BME280;31858;46.008;8.978;2023-02-18T13:38:30;95250.19;;;11.82;100.00
45941;BME280;31858;46.008;8.978;2023-02-18T13:48:42;95232.69;;;11.84;100.00
45941;BME280;31858;46.008;8.978;2023-02-18T13:58:48;95220.97;;;11.92;100.00
45941;BME280;31858;46.008;8.978;2023-02-18T14:09:04;95212.63;;;11.97;100.00
45941;BME280;31858;46.008;8.978;2023-02-18T14:19:29;95206.84;;;11.92;100.00
45941;BME280;31858;46.008;8.978;2023-02-18T14:29:30;95208.09;;;12.01;100.00
45941;BME280;31858;46.008;8.978;2023-02-18T14:39:41;95205.25;;;11.87;100.00
45941;BME280;31858;46.008;8.978;2023-02-18T14:49:47;95194.34;;;11.69;100.00
45941;BME280;31858;46.008;8.978;2023-02-18T14:59:56;95191.13;;;11.57;100.00
45941;BME280;31858;46.008;8.978;2023-02-18T15:09:58;95190.94;;;11.42;100.00
45941;BME280;31858;46.008;8.978;2023-02-18T15:20:04;95185.44;;;11.32;100.00
45941;BME280;31858;46.008;8.978;2023-02-18T15:30:17;95186.88;;;11.26;100.00
45941;BME280;31858;46.008;8.978;2023-02-18T15:40:21;95188.22;;;11.13;100.00
45941;BME280;31858;46.008;8.978;2023-02-18T15:50:26;95187.63;;;11.00;100.00
45941;BME280;31858;46.008;8.978;2023-02-18T16:00:32;95190.19;;;10.93;100.00
45941;BME280;31858;46.008;8.978;2023-02-18T16:10:45;95190.19;;;10.93;100.00
45941;BME280;31858;46.008;8.978;2023-02-18T16:20:56;95177.44;;;11.05;100.00
45941;BME280;31858;46.008;8.978;2023-02-18T16:30:58;95164.56;;;11.11;100.00
45941;BME280;31858;46.008;8.978;2023-02-18T16:41:01;95170.66;;;11.11;100.00
45941;BME280;31858;46.008;8.978;2023-02-18T16:51:05;95181.06;;;10.94;100.00
45941;BME280;31858;46.008;8.978;2023-02-18T17:01:17;95192.91;;;10.73;100.00
45941;BME280;31858;46.008;8.978;2023-02-18T17:11:22;95198.47;;;10.65;100.00
45941;BME280;31858;46.008;8.978;2023-02-18T17:21:27;95207.97;;;10.39;100.00
45941;BME280;31858;46.008;8.978;2023-02-18T17:31:30;95218.41;;;10.52;100.00
45941;BME280;31858;46.008;8.978;2023-02-18T17:41:35;95230.50;;;10.07;100.00
45941;BME280;31858;46.008;8.978;2023-02-18T17:51:37;95226.72;;;10.08;100.00
45941;BME280;31858;46.008;8.978;2023-02-18T18:01:40;95230.50;;;9.88;100.00
45941;BME280;31858;46.008;8.978;2023-02-18T18:11:42;95238.75;;;9.82;100.00
45941;BME280;31858;46.008;8.978;2023-02-18T18:21:45;95236.81;;;9.79;100.00
45941;BME280;31858;46.008;8.978;2023-02-18T18:31:48;95226.84;;;9.76;100.00
45941;BME280;31858;46.008;8.978;2023-02-18T18:41:51;95232.91;;;9.58;100.00
45941;BME280;31858;46.008;8.978;2023-02-18T18:51:52;95240.66;;;9.47;100.00
45941;BME280;31858;46.008;8.978;2023-02-18T19:01:55;95239.19;;;9.49;100.00
45941;BME280;31858;46.008;8.978;2023-02-18T19:11:57;95233.63;;;9.39;100.00
45941;BME280;31858;46.008;8.978;2023-02-18T19:22:00;95230.28;;;9.42;100.00
45941;BME280;31858;46.008;8.978;2023-02-18T19:32:02;95227.66;;;9.10;100.00
45941;BME280;31858;46.008;8.978;2023-02-18T19:42:05;95235.25;;;8.93;100.00
45941;BME280;31858;46.008;8.978;2023-02-18T19:52:07;95234.63;;;8.83;100.00
45941;BME280;31858;46.008;8.978;2023-02-18T20:02:13;95239.16;;;8.67;100.00
45941;BME280;31858;46.008;8.978;2023-02-18T20:12:15;95242.41;;;8.61;100.00
45941;BME280;31858;46.008;8.978;2023-02-18T20:22:17;95243.88;;;8.30;100.00
45941;BME280;31858;46.008;8.978;2023-02-18T20:32:19;95241.94;;;8.15;100.00
45941;BME280;31858;46.008;8.978;2023-02-18T20:42:22;95238.22;;;8.04;100.00
45941;BME280;31858;46.008;8.978;2023-02-18T20:52:24;95247.94;;;8.00;100.00
45941;BME280;31858;46.008;8.978;2023-02-18T21:02:27;95249.00;;;7.83;100.00
45941;BME280;31858;46.008;8.978;2023-02-18T21:12:28;95248.31;;;7.58;100.00
45941;BME280;31858;46.008;8.978;2023-02-18T21:22:31;95247.41;;;7.54;100.00
45941;BME280;31858;46.008;8.978;2023-02-18T21:32:33;95245.88;;;7.53;100.00
45941;BME280;31858;46.008;8.978;2023-02-18T21:42:36;95237.28;;;7.44;100.00
45941;BME280;31858;46.008;8.978;2023-02-18T21:52:38;95232.53;;;7.37;100.00
45941;BME280;31858;46.008;8.978;2023-02-18T22:02:41;95227.66;;;7.39;100.00
45941;BME280;31858;46.008;8.978;2023-02-18T22:12:42;95228.22;;;7.33;100.00
45941;BME280;31858;46.008;8.978;2023-02-18T22:22:45;95229.88;;;7.13;100.00
45941;BME280;31858;46.008;8.978;2023-02-18T22:32:47;95215.97;;;7.16;100.00
45941;BME280;31858;46.008;8.978;2023-02-18T22:42:50;95216.09;;;7.07;100.00
45941;BME280;31858;46.008;8.978;2023-02-18T22:52:51;95216.09;;;6.95;100.00
45941;BME280;31858;46.008;8.978;2023-02-18T23:02:54;95209.47;;;6.89;100.00
45941;BME280;31858;46.008;8.978;2023-02-18T23:12:56;95204.47;;;6.75;100.00
45941;BME280;31858;46.008;8.978;2023-02-18T23:22:59;95210.22;;;6.65;100.00
45941;BME280;31858;46.008;8.978;2023-02-18T23:33:00;95216.72;;;6.68;100.00
45941;BME280;31858;46.008;8.978;2023-02-18T23:43:03;95215.28;;;6.70;100.00
45941;BME280;31858;46.008;8.978;2023-02-18T23:53:05;95203.25;;;6.61;100.00
